Southport, NC

7:53 PM EST on December 22, 2014 (GMT -0500)
RAWS SUNNY POINT NC US | Change Station
CLOSE
Current Station
Personal Weather Station
Location: Southport, NC
Elevation: 29 ft
Nearby Weather Stations

Elev 29 ft 34.00 °N, 78.00 °W | Updated 35 minutes ago

Overcast
Overcast
45 °F
Feels Like 45 °F
N
3
Wind Variable Wind from West
Gusts 13.0 mph

Today
High -- | Low -- °F
--% Chance of Precip.
Yesterday
High -- | Low -- °F
Precip. -- in
7:14 AM 5:07 PM
New Moon, 1% visible
Pressure 30.03 in
Visibility 5.0 miles
Clouds Mostly Cloudy 400 ft
Overcast 1100 ft
Windchill 45 °F
Dew Point 45 °F
Humidity 100%
Rainfall 0.14 in
Snow Depth Not available.
UV 0 out of 12
Pollen .40 out of 12
Air Quality Not available.
Flu Activity Not available.
METAR KSUT 230035Z AUTO 35006KT 5SM BR BKN004 OVC011 08/07 A3003 RMK AO2 T00780073

More Conditions Fewer Conditions

Pressure 30.03 in
Visibility 5.0 miles
Clouds Mostly Cloudy 400 ft
Overcast 1100 ft
Windchill 45 °F
Dew Point 45 °F
Humidity 100%
Rainfall 0.14 in
Snow Depth Not available.
UV 0 out of 12
Pollen .40 out of 12
Air Quality Not available.
Flu Activity Not available.
METAR KSUT 230035Z AUTO 35006KT 5SM BR BKN004 OVC011 08/07 A3003 RMK AO2 T00780073

More Conditions Fewer Conditions

10-Day Weather Forecast

Almanac

Astronomy

Dec. 22, 2014 Rise Set
Actual Time
Civil Twilight
Nautical Twilight
Astronomical Twilight
Moon
Length of Visible Light
Length of Day
Tomorrow will be .
, % of the Moon is Illuminated

Today's Extremes

State Highs State Lows

Community

WunderPhotos

Upload Photos

1,779,740 photos uploaded!

WunderBlogs® & News

Nearby

Air Quality

  Air Quality AQ Index Pollutant
Not available.

Snow Depth

Station Depth Elevation

Earthquake Activity

City Distance Mag. Time & Date
Minimum magnitude displayed is 2.5.

Coastal Water Temperatures

Place Temperature

Nearby Weather Stations